sensor_id;sensor_type;location;lat;lon;timestamp;temperature;humidity
46898;DHT22;32646;50.958;6.258;2024-02-21T00:00:05;8.60;76.30
46898;DHT22;32646;50.958;6.258;2024-02-21T00:02:32;8.60;77.60
46898;DHT22;32646;50.958;6.258;2024-02-21T00:04:58;8.50;77.90
46898;DHT22;32646;50.958;6.258;2024-02-21T00:07:25;8.60;80.00
46898;DHT22;32646;50.958;6.258;2024-02-21T00:09:52;8.60;78.40
46898;DHT22;32646;50.958;6.258;2024-02-21T00:12:18;8.60;80.30
46898;DHT22;32646;50.958;6.258;2024-02-21T00:14:45;8.60;78.00
46898;DHT22;32646;50.958;6.258;2024-02-21T00:17:12;8.60;77.50
46898;DHT22;32646;50.958;6.258;2024-02-21T00:19:40;8.50;78.40
46898;DHT22;32646;50.958;6.258;2024-02-21T00:22:06;8.50;80.10
46898;DHT22;32646;50.958;6.258;2024-02-21T00:24:33;8.50;79.80
46898;DHT22;32646;50.958;6.258;2024-02-21T00:27:00;8.50;80.30
46898;DHT22;32646;50.958;6.258;2024-02-21T00:29:26;8.50;80.00
46898;DHT22;32646;50.958;6.258;2024-02-21T00:31:53;8.50;79.80
46898;DHT22;32646;50.958;6.258;2024-02-21T00:34:19;8.50;80.70
46898;DHT22;32646;50.958;6.258;2024-02-21T00:36:46;8.50;79.60
46898;DHT22;32646;50.958;6.258;2024-02-21T00:39:13;8.40;81.20
46898;DHT22;32646;50.958;6.258;2024-02-21T00:41:39;8.50;79.20
46898;DHT22;32646;50.958;6.258;2024-02-21T00:44:06;8.50;81.50
46898;DHT22;32646;50.958;6.258;2024-02-21T00:46:33;8.40;81.10
46898;DHT22;32646;50.958;6.258;2024-02-21T00:48:59;8.50;81.30
46898;DHT22;32646;50.958;6.258;2024-02-21T00:51:26;8.40;81.30
46898;DHT22;32646;50.958;6.258;2024-02-21T00:53:53;8.40;81.40
46898;DHT22;32646;50.958;6.258;2024-02-21T00:56:19;8.50;79.90
46898;DHT22;32646;50.958;6.258;2024-02-21T00:58:46;8.50;80.50
46898;DHT22;32646;50.958;6.258;2024-02-21T01:01:12;8.40;79.90
46898;DHT22;32646;50.958;6.258;2024-02-21T01:03:39;8.40;79.60
46898;DHT22;32646;50.958;6.258;2024-02-21T01:06:06;8.50;79.00
46898;DHT22;32646;50.958;6.258;2024-02-21T01:08:33;8.50;79.60
46898;DHT22;32646;50.958;6.258;2024-02-21T01:10:59;8.40;81.60
46898;DHT22;32646;50.958;6.258;2024-02-21T01:13:26;8.40;83.60
46898;DHT22;32646;50.958;6.258;2024-02-21T01:15:53;8.40;82.90
46898;DHT22;32646;50.958;6.258;2024-02-21T01:18:19;8.40;81.00
46898;DHT22;32646;50.958;6.258;2024-02-21T01:20:46;8.40;81.50
46898;DHT22;32646;50.958;6.258;2024-02-21T01:23:13;8.40;81.50
46898;DHT22;32646;50.958;6.258;2024-02-21T01:25:39;8.40;80.60
46898;DHT22;32646;50.958;6.258;2024-02-21T01:28:06;8.40;81.40
46898;DHT22;32646;50.958;6.258;2024-02-21T01:30:33;8.50;82.50
46898;DHT22;32646;50.958;6.258;2024-02-21T01:32:59;8.30;84.60
46898;DHT22;32646;50.958;6.258;2024-02-21T01:35:26;8.30;85.60
46898;DHT22;32646;50.958;6.258;2024-02-21T01:37:52;8.40;84.20
46898;DHT22;32646;50.958;6.258;2024-02-21T01:40:19;8.40;84.00
46898;DHT22;32646;50.958;6.258;2024-02-21T01:42:46;8.40;84.30
46898;DHT22;32646;50.958;6.258;2024-02-21T01:45:12;8.40;84.20
46898;DHT22;32646;50.958;6.258;2024-02-21T01:47:44;8.40;85.40
46898;DHT22;32646;50.958;6.258;2024-02-21T01:50:12;8.30;85.10
46898;DHT22;32646;50.958;6.258;2024-02-21T01:52:39;8.40;83.10
46898;DHT22;32646;50.958;6.258;2024-02-21T01:55:06;8.40;83.00
46898;DHT22;32646;50.958;6.258;2024-02-21T01:57:34;8.40;82.10
46898;DHT22;32646;50.958;6.258;2024-02-21T02:00:01;8.40;81.30
46898;DHT22;32646;50.958;6.258;2024-02-21T02:02:27;8.40;80.40
46898;DHT22;32646;50.958;6.258;2024-02-21T02:04:54;8.50;79.90
46898;DHT22;32646;50.958;6.258;2024-02-21T02:07:22;8.50;79.40
46898;DHT22;32646;50.958;6.258;2024-02-21T02:09:49;8.50;79.60
46898;DHT22;32646;50.958;6.258;2024-02-21T02:12:16;8.50;78.90
46898;DHT22;32646;50.958;6.258;2024-02-21T02:14:42;8.50;78.80
46898;DHT22;32646;50.958;6.258;2024-02-21T02:17:09;8.50;79.50
46898;DHT22;32646;50.958;6.258;2024-02-21T02:19:36;8.50;79.10
46898;DHT22;32646;50.958;6.258;2024-02-21T02:22:18;8.50;79.20
46898;DHT22;32646;50.958;6.258;2024-02-21T02:24:47;8.50;79.10
46898;DHT22;32646;50.958;6.258;2024-02-21T02:27:14;8.50;77.90
46898;DHT22;32646;50.958;6.258;2024-02-21T02:29:40;8.50;77.30
46898;DHT22;32646;50.958;6.258;2024-02-21T02:32:07;8.50;78.90
46898;DHT22;32646;50.958;6.258;2024-02-21T02:34:33;8.40;80.30
46898;DHT22;32646;50.958;6.258;2024-02-21T02:37:00;8.50;81.20
46898;DHT22;32646;50.958;6.258;2024-02-21T02:39:27;8.50;79.40
46898;DHT22;32646;50.958;6.258;2024-02-21T02:41:53;8.50;80.80
46898;DHT22;32646;50.958;6.258;2024-02-21T02:44:20;8.50;80.20
46898;DHT22;32646;50.958;6.258;2024-02-21T02:46:46;8.50;80.40
46898;DHT22;32646;50.958;6.258;2024-02-21T02:49:13;8.40;80.40
46898;DHT22;32646;50.958;6.258;2024-02-21T02:51:43;8.50;78.00
46898;DHT22;32646;50.958;6.258;2024-02-21T02:54:11;8.50;77.90
46898;DHT22;32646;50.958;6.258;2024-02-21T02:56:37;8.50;77.10
46898;DHT22;32646;50.958;6.258;2024-02-21T02:59:04;8.50;78.00
46898;DHT22;32646;50.958;6.258;2024-02-21T03:01:34;8.50;77.50
46898;DHT22;32646;50.958;6.258;2024-02-21T03:04:00;8.50;76.60
46898;DHT22;32646;50.958;6.258;2024-02-21T03:06:27;8.50;76.70
46898;DHT22;32646;50.958;6.258;2024-02-21T03:08:54;8.50;77.40
46898;DHT22;32646;50.958;6.258;2024-02-21T03:11:20;8.50;77.40
46898;DHT22;32646;50.958;6.258;2024-02-21T03:13:47;8.50;76.90
46898;DHT22;32646;50.958;6.258;2024-02-21T03:16:17;8.40;78.60
46898;DHT22;32646;50.958;6.258;2024-02-21T03:18:43;8.40;80.10
46898;DHT22;32646;50.958;6.258;2024-02-21T03:21:10;8.40;82.20
46898;DHT22;32646;50.958;6.258;2024-02-21T03:23:37;8.40;82.70
46898;DHT22;32646;50.958;6.258;2024-02-21T03:26:03;8.30;82.70
46898;DHT22;32646;50.958;6.258;2024-02-21T03:28:30;8.40;84.20
46898;DHT22;32646;50.958;6.258;2024-02-21T03:30:57;8.30;85.70
46898;DHT22;32646;50.958;6.258;2024-02-21T03:33:23;8.40;84.80
46898;DHT22;32646;50.958;6.258;2024-02-21T03:35:50;8.30;86.10
46898;DHT22;32646;50.958;6.258;2024-02-21T03:38:17;8.30;87.50
46898;DHT22;32646;50.958;6.258;2024-02-21T03:40:43;8.30;86.60
46898;DHT22;32646;50.958;6.258;2024-02-21T03:43:10;8.30;87.90
46898;DHT22;32646;50.958;6.258;2024-02-21T03:45:36;8.30;86.20
46898;DHT22;32646;50.958;6.258;2024-02-21T03:48:03;8.30;84.80
46898;DHT22;32646;50.958;6.258;2024-02-21T03:50:30;8.30;85.30
46898;DHT22;32646;50.958;6.258;2024-02-21T03:52:57;8.30;83.50
46898;DHT22;32646;50.958;6.258;2024-02-21T03:55:24;8.30;86.00
46898;DHT22;32646;50.958;6.258;2024-02-21T03:57:50;8.30;84.40
46898;DHT22;32646;50.958;6.258;2024-02-21T04:00:17;8.30;83.70
46898;DHT22;32646;50.958;6.258;2024-02-21T04:02:44;8.30;83.00
46898;DHT22;32646;50.958;6.258;2024-02-21T04:05:10;8.30;82.20
46898;DHT22;32646;50.958;6.258;2024-02-21T04:07:38;8.40;81.40
46898;DHT22;32646;50.958;6.258;2024-02-21T04:10:05;8.40;79.70
46898;DHT22;32646;50.958;6.258;2024-02-21T04:12:32;8.30;82.50
46898;DHT22;32646;50.958;6.258;2024-02-21T04:14:58;8.30;80.80
46898;DHT22;32646;50.958;6.258;2024-02-21T04:17:25;8.30;80.40
46898;DHT22;32646;50.958;6.258;2024-02-21T04:20:02;8.30;81.20
46898;DHT22;32646;50.958;6.258;2024-02-21T04:22:29;8.30;81.00
46898;DHT22;32646;50.958;6.258;2024-02-21T04:24:56;8.30;81.20
46898;DHT22;32646;50.958;6.258;2024-02-21T04:27:22;8.30;80.10
46898;DHT22;32646;50.958;6.258;2024-02-21T04:29:49;8.30;79.20
46898;DHT22;32646;50.958;6.258;2024-02-21T04:32:16;8.30;78.10
46898;DHT22;32646;50.958;6.258;2024-02-21T04:34:42;8.40;76.20
46898;DHT22;32646;50.958;6.258;2024-02-21T04:37:09;8.40;75.00
46898;DHT22;32646;50.958;6.258;2024-02-21T04:39:36;8.40;75.70
46898;DHT22;32646;50.958;6.258;2024-02-21T04:42:02;8.40;75.40
46898;DHT22;32646;50.958;6.258;2024-02-21T04:44:29;8.40;74.50
46898;DHT22;32646;50.958;6.258;2024-02-21T04:46:56;8.40;74.70
46898;DHT22;32646;50.958;6.258;2024-02-21T04:49:22;8.40;74.70
46898;DHT22;32646;50.958;6.258;2024-02-21T04:51:49;8.40;75.70
46898;DHT22;32646;50.958;6.258;2024-02-21T04:54:15;8.40;74.90
46898;DHT22;32646;50.958;6.258;2024-02-21T04:56:42;8.40;75.00
46898;DHT22;32646;50.958;6.258;2024-02-21T04:59:09;8.40;74.60
46898;DHT22;32646;50.958;6.258;2024-02-21T05:01:35;8.40;75.00
46898;DHT22;32646;50.958;6.258;2024-02-21T05:04:02;8.40;75.60
46898;DHT22;32646;50.958;6.258;2024-02-21T05:06:29;8.40;73.50
46898;DHT22;32646;50.958;6.258;2024-02-21T05:08:55;8.40;73.30
46898;DHT22;32646;50.958;6.258;2024-02-21T05:11:22;8.40;73.30
46898;DHT22;32646;50.958;6.258;2024-02-21T05:13:49;8.40;73.20
46898;DHT22;32646;50.958;6.258;2024-02-21T05:16:16;8.40;72.10
46898;DHT22;32646;50.958;6.258;2024-02-21T05:18:43;8.40;70.50
46898;DHT22;32646;50.958;6.258;2024-02-21T05:21:09;8.40;70.00
46898;DHT22;32646;50.958;6.258;2024-02-21T05:23:36;8.50;70.20
46898;DHT22;32646;50.958;6.258;2024-02-21T05:26:03;8.50;69.90
46898;DHT22;32646;50.958;6.258;2024-02-21T05:28:30;8.50;68.70
46898;DHT22;32646;50.958;6.258;2024-02-21T05:30:56;8.50;65.30
46898;DHT22;32646;50.958;6.258;2024-02-21T05:33:23;8.50;64.80
46898;DHT22;32646;50.958;6.258;2024-02-21T05:35:50;8.60;64.30
46898;DHT22;32646;50.958;6.258;2024-02-21T05:38:17;8.60;64.30
46898;DHT22;32646;50.958;6.258;2024-02-21T05:40:47;8.50;63.90
46898;DHT22;32646;50.958;6.258;2024-02-21T05:43:13;8.50;65.60
46898;DHT22;32646;50.958;6.258;2024-02-21T05:45:40;8.50;62.30
46898;DHT22;32646;50.958;6.258;2024-02-21T05:48:07;8.60;61.50
46898;DHT22;32646;50.958;6.258;2024-02-21T05:50:34;8.60;61.00
46898;DHT22;32646;50.958;6.258;2024-02-21T05:53:00;8.50;63.50
46898;DHT22;32646;50.958;6.258;2024-02-21T05:55:27;8.50;64.80
46898;DHT22;32646;50.958;6.258;2024-02-21T05:57:54;8.50;65.70
46898;DHT22;32646;50.958;6.258;2024-02-21T06:00:21;8.50;68.70
46898;DHT22;32646;50.958;6.258;2024-02-21T06:02:47;8.50;69.70
46898;DHT22;32646;50.958;6.258;2024-02-21T06:05:14;8.40;73.10
46898;DHT22;32646;50.958;6.258;2024-02-21T06:07:41;8.30;75.80
46898;DHT22;32646;50.958;6.258;2024-02-21T06:10:08;8.40;75.00
46898;DHT22;32646;50.958;6.258;2024-02-21T06:12:34;8.40;75.30
46898;DHT22;32646;50.958;6.258;2024-02-21T06:15:01;8.40;74.30
46898;DHT22;32646;50.958;6.258;2024-02-21T06:17:27;8.40;75.40
46898;DHT22;32646;50.958;6.258;2024-02-21T06:19:54;8.50;78.70
46898;DHT22;32646;50.958;6.258;2024-02-21T06:22:21;8.40;79.30
46898;DHT22;32646;50.958;6.258;2024-02-21T06:24:47;8.40;81.80
46898;DHT22;32646;50.958;6.258;2024-02-21T06:27:14;8.30;84.10
46898;DHT22;32646;50.958;6.258;2024-02-21T06:29:40;8.40;86.10
46898;DHT22;32646;50.958;6.258;2024-02-21T06:32:07;8.50;85.50
46898;DHT22;32646;50.958;6.258;2024-02-21T06:34:34;8.40;82.60
46898;DHT22;32646;50.958;6.258;2024-02-21T06:37:01;8.40;81.70
46898;DHT22;32646;50.958;6.258;2024-02-21T06:39:29;8.40;79.70
46898;DHT22;32646;50.958;6.258;2024-02-21T06:41:56;8.40;78.30
46898;DHT22;32646;50.958;6.258;2024-02-21T06:44:28;8.40;75.10
46898;DHT22;32646;50.958;6.258;2024-02-21T06:46:55;8.40;73.90
46898;DHT22;32646;50.958;6.258;2024-02-21T06:49:22;8.50;69.30
46898;DHT22;32646;50.958;6.258;2024-02-21T06:51:48;8.40;67.60
46898;DHT22;32646;50.958;6.258;2024-02-21T06:54:15;8.40;67.40
46898;DHT22;32646;50.958;6.258;2024-02-21T06:56:42;8.40;65.60
46898;DHT22;32646;50.958;6.258;2024-02-21T06:59:08;8.40;62.90
46898;DHT22;32646;50.958;6.258;2024-02-21T07:01:35;8.40;62.70
46898;DHT22;32646;50.958;6.258;2024-02-21T07:04:02;8.40;63.10
46898;DHT22;32646;50.958;6.258;2024-02-21T07:06:28;8.40;61.10
46898;DHT22;32646;50.958;6.258;2024-02-21T07:08:58;8.40;59.50
46898;DHT22;32646;50.958;6.258;2024-02-21T07:11:25;8.30;61.40
46898;DHT22;32646;50.958;6.258;2024-02-21T07:13:52;8.30;63.80
46898;DHT22;32646;50.958;6.258;2024-02-21T07:16:18;8.20;66.80
46898;DHT22;32646;50.958;6.258;2024-02-21T07:18:45;8.20;67.30
46898;DHT22;32646;50.958;6.258;2024-02-21T07:21:12;8.20;68.60
46898;DHT22;32646;50.958;6.258;2024-02-21T07:23:41;8.20;68.90
46898;DHT22;32646;50.958;6.258;2024-02-21T07:26:07;8.10;70.50
46898;DHT22;32646;50.958;6.258;2024-02-21T07:28:34;8.20;71.00
46898;DHT22;32646;50.958;6.258;2024-02-21T07:31:01;8.10;70.10
46898;DHT22;32646;50.958;6.258;2024-02-21T07:33:27;8.20;67.30
46898;DHT22;32646;50.958;6.258;2024-02-21T07:35:54;8.20;67.10
46898;DHT22;32646;50.958;6.258;2024-02-21T07:38:20;8.10;67.60
46898;DHT22;32646;50.958;6.258;2024-02-21T07:40:47;8.10;67.20
46898;DHT22;32646;50.958;6.258;2024-02-21T07:43:14;8.10;64.80
46898;DHT22;32646;50.958;6.258;2024-02-21T07:45:41;8.10;61.30
46898;DHT22;32646;50.958;6.258;2024-02-21T07:48:07;8.10;59.30
46898;DHT22;32646;50.958;6.258;2024-02-21T07:50:34;8.20;55.40
46898;DHT22;32646;50.958;6.258;2024-02-21T07:53:01;8.20;54.80
46898;DHT22;32646;50.958;6.258;2024-02-21T07:55:27;8.30;53.70
46898;DHT22;32646;50.958;6.258;2024-02-21T07:57:54;8.30;50.00
46898;DHT22;32646;50.958;6.258;2024-02-21T08:00:21;8.30;48.60
46898;DHT22;32646;50.958;6.258;2024-02-21T08:02:48;8.30;49.70
46898;DHT22;32646;50.958;6.258;2024-02-21T08:05:15;8.30;48.30
46898;DHT22;32646;50.958;6.258;2024-02-21T08:07:42;8.30;49.30
46898;DHT22;32646;50.958;6.258;2024-02-21T08:10:09;8.30;50.10
46898;DHT22;32646;50.958;6.258;2024-02-21T08:12:35;8.30;49.70
46898;DHT22;32646;50.958;6.258;2024-02-21T08:15:02;8.30;51.30
46898;DHT22;32646;50.958;6.258;2024-02-21T08:17:29;8.40;49.20
46898;DHT22;32646;50.958;6.258;2024-02-21T08:19:56;8.40;47.10
46898;DHT22;32646;50.958;6.258;2024-02-21T08:22:22;8.40;46.50
46898;DHT22;32646;50.958;6.258;2024-02-21T08:24:52;8.40;48.00
46898;DHT22;32646;50.958;6.258;2024-02-21T08:27:19;8.40;49.10
46898;DHT22;32646;50.958;6.258;2024-02-21T08:29:45;8.40;47.20
46898;DHT22;32646;50.958;6.258;2024-02-21T08:32:12;8.40;48.50
46898;DHT22;32646;50.958;6.258;2024-02-21T08:34:39;8.40;47.80
46898;DHT22;32646;50.958;6.258;2024-02-21T08:37:06;8.40;50.10
46898;DHT22;32646;50.958;6.258;2024-02-21T08:39:32;8.50;45.60
46898;DHT22;32646;50.958;6.258;2024-02-21T08:41:59;8.50;46.90
46898;DHT22;32646;50.958;6.258;2024-02-21T08:44:28;8.50;44.10
46898;DHT22;32646;50.958;6.258;2024-02-21T08:46:55;8.60;43.50
46898;DHT22;32646;50.958;6.258;2024-02-21T08:49:23;8.60;43.80
46898;DHT22;32646;50.958;6.258;2024-02-21T08:51:50;8.70;44.80
46898;DHT22;32646;50.958;6.258;2024-02-21T08:54:16;8.70;45.30
46898;DHT22;32646;50.958;6.258;2024-02-21T08:56:43;8.70;43.20
46898;DHT22;32646;50.958;6.258;2024-02-21T08:59:10;8.70;43.40
46898;DHT22;32646;50.958;6.258;2024-02-21T09:01:37;8.70;43.00
46898;DHT22;32646;50.958;6.258;2024-02-21T09:04:04;8.80;43.20
46898;DHT22;32646;50.958;6.258;2024-02-21T09:06:31;8.80;42.40
46898;DHT22;32646;50.958;6.258;2024-02-21T09:08:58;8.90;41.10
46898;DHT22;32646;50.958;6.258;2024-02-21T09:11:24;8.90;41.50
46898;DHT22;32646;50.958;6.258;2024-02-21T09:13:51;8.90;41.50
46898;DHT22;32646;50.958;6.258;2024-02-21T09:16:18;8.90;41.50
46898;DHT22;32646;50.958;6.258;2024-02-21T09:18:45;9.00;39.90
46898;DHT22;32646;50.958;6.258;2024-02-21T09:21:11;9.00;40.50
46898;DHT22;32646;50.958;6.258;2024-02-21T09:23:38;9.20;39.60
46898;DHT22;32646;50.958;6.258;2024-02-21T09:26:05;9.10;38.40
46898;DHT22;32646;50.958;6.258;2024-02-21T09:28:31;9.20;40.10
46898;DHT22;32646;50.958;6.258;2024-02-21T09:30:58;9.20;40.00
46898;DHT22;32646;50.958;6.258;2024-02-21T09:33:25;9.30;40.40
46898;DHT22;32646;50.958;6.258;2024-02-21T09:35:58;9.30;40.50
46898;DHT22;32646;50.958;6.258;2024-02-21T09:38:25;9.20;36.80
46898;DHT22;32646;50.958;6.258;2024-02-21T09:41:18;9.30;37.20
46898;DHT22;32646;50.958;6.258;2024-02-21T09:43:52;9.30;37.40
46898;DHT22;32646;50.958;6.258;2024-02-21T09:46:21;9.40;39.00
46898;DHT22;32646;50.958;6.258;2024-02-21T09:51:34;9.50;37.30
46898;DHT22;32646;50.958;6.258;2024-02-21T09:54:02;9.50;38.90
46898;DHT22;32646;50.958;6.258;2024-02-21T09:56:42;9.40;38.80
46898;DHT22;32646;50.958;6.258;2024-02-21T09:59:08;9.50;37.20
46898;DHT22;32646;50.958;6.258;2024-02-21T10:01:36;9.40;37.20
46898;DHT22;32646;50.958;6.258;2024-02-21T10:04:03;9.50;39.30
46898;DHT22;32646;50.958;6.258;2024-02-21T10:06:32;9.40;37.80
46898;DHT22;32646;50.958;6.258;2024-02-21T10:08:59;9.50;39.10
46898;DHT22;32646;50.958;6.258;2024-02-21T10:11:25;9.50;37.00
46898;DHT22;32646;50.958;6.258;2024-02-21T10:14:03;9.50;37.70
46898;DHT22;32646;50.958;6.258;2024-02-21T10:16:30;9.50;36.70
46898;DHT22;32646;50.958;6.258;2024-02-21T10:18:57;9.60;36.50
46898;DHT22;32646;50.958;6.258;2024-02-21T10:21:24;9.60;35.20
46898;DHT22;32646;50.958;6.258;2024-02-21T10:23:51;9.60;37.10
46898;DHT22;32646;50.958;6.258;2024-02-21T10:26:19;9.60;37.90
46898;DHT22;32646;50.958;6.258;2024-02-21T10:28:47;9.60;37.70
46898;DHT22;32646;50.958;6.258;2024-02-21T10:31:29;9.70;35.50
46898;DHT22;32646;50.958;6.258;2024-02-21T10:34:00;9.70;36.80
46898;DHT22;32646;50.958;6.258;2024-02-21T10:36:27;9.80;36.80
46898;DHT22;32646;50.958;6.258;2024-02-21T10:38:54;9.80;34.80
46898;DHT22;32646;50.958;6.258;2024-02-21T10:41:21;9.90;31.60
46898;DHT22;32646;50.958;6.258;2024-02-21T10:43:53;10.00;32.40
46898;DHT22;32646;50.958;6.258;2024-02-21T10:46:22;10.00;33.40
46898;DHT22;32646;50.958;6.258;2024-02-21T10:49:06;10.00;34.70
46898;DHT22;32646;50.958;6.258;2024-02-21T10:51:37;10.20;33.20
46898;DHT22;32646;50.958;6.258;2024-02-21T10:54:13;10.20;33.00
46898;DHT22;32646;50.958;6.258;2024-02-21T10:56:41;10.30;33.30
46898;DHT22;32646;50.958;6.258;2024-02-21T10:59:08;10.30;29.80
46898;DHT22;32646;50.958;6.258;2024-02-21T11:01:35;10.30;31.50
46898;DHT22;32646;50.958;6.258;2024-02-21T11:04:07;10.20;30.00
46898;DHT22;32646;50.958;6.258;2024-02-21T11:06:36;10.30;31.00
46898;DHT22;32646;50.958;6.258;2024-02-21T11:09:08;10.30;29.80
46898;DHT22;32646;50.958;6.258;2024-02-21T11:11:37;10.40;29.70
46898;DHT22;32646;50.958;6.258;2024-02-21T11:14:27;10.40;30.50
46898;DHT22;32646;50.958;6.258;2024-02-21T11:16:54;10.40;30.20
46898;DHT22;32646;50.958;6.258;2024-02-21T11:19:25;10.40;28.80
46898;DHT22;32646;50.958;6.258;2024-02-21T11:21:54;10.50;32.20
46898;DHT22;32646;50.958;6.258;2024-02-21T11:24:30;10.50;31.30
46898;DHT22;32646;50.958;6.258;2024-02-21T11:32:14;10.60;30.40
46898;DHT22;32646;50.958;6.258;2024-02-21T11:34:52;10.60;29.80
46898;DHT22;32646;50.958;6.258;2024-02-21T11:37:19;10.70;30.50
46898;DHT22;32646;50.958;6.258;2024-02-21T11:39:46;10.60;33.50
46898;DHT22;32646;50.958;6.258;2024-02-21T11:42:13;10.60;31.80
46898;DHT22;32646;50.958;6.258;2024-02-21T11:44:39;10.60;32.20
46898;DHT22;32646;50.958;6.258;2024-02-21T11:47:07;10.60;30.00
46898;DHT22;32646;50.958;6.258;2024-02-21T11:49:38;10.60;31.70
46898;DHT22;32646;50.958;6.258;2024-02-21T11:52:05;10.80;28.00
46898;DHT22;32646;50.958;6.258;2024-02-21T11:54:33;10.80;25.10
46898;DHT22;32646;50.958;6.258;2024-02-21T11:57:00;10.90;27.50
46898;DHT22;32646;50.958;6.258;2024-02-21T11:59:30;10.90;25.70
46898;DHT22;32646;50.958;6.258;2024-02-21T12:01:58;11.00;26.80
46898;DHT22;32646;50.958;6.258;2024-02-21T12:04:25;11.00;26.30
46898;DHT22;32646;50.958;6.258;2024-02-21T12:06:55;11.10;25.30
46898;DHT22;32646;50.958;6.258;2024-02-21T12:09:24;11.30;24.90
46898;DHT22;32646;50.958;6.258;2024-02-21T12:12:04;11.40;26.70
46898;DHT22;32646;50.958;6.258;2024-02-21T12:14:33;11.60;24.10
46898;DHT22;32646;50.958;6.258;2024-02-21T12:17:01;11.80;22.40
46898;DHT22;32646;50.958;6.258;2024-02-21T12:19:30;11.80;22.20
46898;DHT22;32646;50.958;6.258;2024-02-21T12:21:59;11.90;19.10
46898;DHT22;32646;50.958;6.258;2024-02-21T12:24:27;11.90;18.10
46898;DHT22;32646;50.958;6.258;2024-02-21T12:26:55;12.00;21.20
46898;DHT22;32646;50.958;6.258;2024-02-21T12:29:23;12.20;19.20
46898;DHT22;32646;50.958;6.258;2024-02-21T12:31:50;12.40;22.40
46898;DHT22;32646;50.958;6.258;2024-02-21T12:34:17;12.70;21.80
46898;DHT22;32646;50.958;6.258;2024-02-21T12:36:53;12.90;17.10
46898;DHT22;32646;50.958;6.258;2024-02-21T12:39:19;13.10;18.80
46898;DHT22;32646;50.958;6.258;2024-02-21T12:41:46;13.60;16.50
46898;DHT22;32646;50.958;6.258;2024-02-21T12:44:13;13.50;10.90
46898;DHT22;32646;50.958;6.258;2024-02-21T12:46:40;13.50;10.30
46898;DHT22;32646;50.958;6.258;2024-02-21T12:49:06;13.60;10.90
46898;DHT22;32646;50.958;6.258;2024-02-21T12:51:34;13.70;8.20
46898;DHT22;32646;50.958;6.258;2024-02-21T12:54:00;13.60;7.10
46898;DHT22;32646;50.958;6.258;2024-02-21T12:56:27;13.50;9.00
46898;DHT22;32646;50.958;6.258;2024-02-21T12:58:54;13.40;12.90
46898;DHT22;32646;50.958;6.258;2024-02-21T13:01:21;13.30;10.00
46898;DHT22;32646;50.958;6.258;2024-02-21T13:03:48;13.10;11.10
46898;DHT22;32646;50.958;6.258;2024-02-21T13:06:15;13.30;12.20
46898;DHT22;32646;50.958;6.258;2024-02-21T13:08:41;13.20;12.30
46898;DHT22;32646;50.958;6.258;2024-02-21T13:11:08;13.10;11.70
46898;DHT22;32646;50.958;6.258;2024-02-21T13:13:35;12.80;11.60
46898;DHT22;32646;50.958;6.258;2024-02-21T13:16:01;12.60;13.00
46898;DHT22;32646;50.958;6.258;2024-02-21T13:18:28;12.50;12.60
46898;DHT22;32646;50.958;6.258;2024-02-21T13:20:55;12.20;9.10
46898;DHT22;32646;50.958;6.258;2024-02-21T13:23:21;12.10;10.10
46898;DHT22;32646;50.958;6.258;2024-02-21T13:25:48;11.90;10.50
46898;DHT22;32646;50.958;6.258;2024-02-21T13:28:15;11.80;13.40
46898;DHT22;32646;50.958;6.258;2024-02-21T13:30:42;11.70;14.00
46898;DHT22;32646;50.958;6.258;2024-02-21T13:33:08;11.60;12.50
46898;DHT22;32646;50.958;6.258;2024-02-21T13:35:35;11.60;15.00
46898;DHT22;32646;50.958;6.258;2024-02-21T13:38:03;11.60;15.00
46898;DHT22;32646;50.958;6.258;2024-02-21T13:40:30;11.60;16.80
46898;DHT22;32646;50.958;6.258;2024-02-21T13:42:57;11.60;17.00
46898;DHT22;32646;50.958;6.258;2024-02-21T13:45:23;11.60;16.00
46898;DHT22;32646;50.958;6.258;2024-02-21T13:47:50;11.60;17.40
46898;DHT22;32646;50.958;6.258;2024-02-21T13:50:17;11.60;17.40
46898;DHT22;32646;50.958;6.258;2024-02-21T13:52:44;11.60;18.90
46898;DHT22;32646;50.958;6.258;2024-02-21T13:55:11;11.60;17.80
46898;DHT22;32646;50.958;6.258;2024-02-21T13:57:38;11.60;13.90
46898;DHT22;32646;50.958;6.258;2024-02-21T14:00:05;11.70;13.40
46898;DHT22;32646;50.958;6.258;2024-02-21T14:02:32;11.70;9.90
46898;DHT22;32646;50.958;6.258;2024-02-21T14:04:58;11.70;8.50
46898;DHT22;32646;50.958;6.258;2024-02-21T14:07:25;11.60;9.70
46898;DHT22;32646;50.958;6.258;2024-02-21T14:09:52;11.70;10.20
46898;DHT22;32646;50.958;6.258;2024-02-21T14:12:18;11.70;6.90
46898;DHT22;32646;50.958;6.258;2024-02-21T14:14:45;11.60;9.20
46898;DHT22;32646;50.958;6.258;2024-02-21T14:17:11;11.60;9.10
46898;DHT22;32646;50.958;6.258;2024-02-21T14:19:38;11.60;9.80
46898;DHT22;32646;50.958;6.258;2024-02-21T14:22:05;11.60;9.00
46898;DHT22;32646;50.958;6.258;2024-02-21T14:24:31;11.60;8.20
46898;DHT22;32646;50.958;6.258;2024-02-21T14:26:58;11.70;8.80
46898;DHT22;32646;50.958;6.258;2024-02-21T14:29:25;11.60;6.50
46898;DHT22;32646;50.958;6.258;2024-02-21T14:31:51;11.60;7.10
46898;DHT22;32646;50.958;6.258;2024-02-21T14:34:18;11.60;9.00
46898;DHT22;32646;50.958;6.258;2024-02-21T14:36:44;11.60;9.10
46898;DHT22;32646;50.958;6.258;2024-02-21T14:39:11;11.60;7.90
46898;DHT22;32646;50.958;6.258;2024-02-21T14:41:38;11.50;8.00
46898;DHT22;32646;50.958;6.258;2024-02-21T14:44:04;11.50;8.20
46898;DHT22;32646;50.958;6.258;2024-02-21T14:46:32;11.50;9.20
46898;DHT22;32646;50.958;6.258;2024-02-21T14:48:58;11.50;8.80
46898;DHT22;32646;50.958;6.258;2024-02-21T14:51:25;11.40;9.60
46898;DHT22;32646;50.958;6.258;2024-02-21T14:53:52;11.50;6.80
46898;DHT22;32646;50.958;6.258;2024-02-21T14:56:18;11.40;8.20
46898;DHT22;32646;50.958;6.258;2024-02-21T14:58:45;11.50;7.30
46898;DHT22;32646;50.958;6.258;2024-02-21T15:01:14;11.40;8.20
46898;DHT22;32646;50.958;6.258;2024-02-21T15:03:40;11.40;8.70
46898;DHT22;32646;50.958;6.258;2024-02-21T15:06:07;11.50;10.20
46898;DHT22;32646;50.958;6.258;2024-02-21T15:08:33;11.40;7.00
46898;DHT22;32646;50.958;6.258;2024-02-21T15:11:00;11.40;4.70
46898;DHT22;32646;50.958;6.258;2024-02-21T15:13:27;11.40;3.70
46898;DHT22;32646;50.958;6.258;2024-02-21T15:15:54;11.40;4.60
46898;DHT22;32646;50.958;6.258;2024-02-21T15:18:20;11.30;4.50
46898;DHT22;32646;50.958;6.258;2024-02-21T15:20:47;11.30;5.70
46898;DHT22;32646;50.958;6.258;2024-02-21T15:23:14;11.30;5.60
46898;DHT22;32646;50.958;6.258;2024-02-21T15:25:40;11.30;5.10
46898;DHT22;32646;50.958;6.258;2024-02-21T15:28:07;11.20;7.00
46898;DHT22;32646;50.958;6.258;2024-02-21T15:30:33;11.10;8.10
46898;DHT22;32646;50.958;6.258;2024-02-21T15:33:00;11.10;7.10
46898;DHT22;32646;50.958;6.258;2024-02-21T15:35:30;11.10;4.80
46898;DHT22;32646;50.958;6.258;2024-02-21T15:37:57;11.10;5.60
46898;DHT22;32646;50.958;6.258;2024-02-21T15:40:24;11.10;5.40
46898;DHT22;32646;50.958;6.258;2024-02-21T15:42:51;11.00;6.80
46898;DHT22;32646;50.958;6.258;2024-02-21T15:45:18;11.00;6.70
46898;DHT22;32646;50.958;6.258;2024-02-21T15:47:44;10.90;7.60
46898;DHT22;32646;50.958;6.258;2024-02-21T15:50:11;11.00;5.00